Time;durP1;ratioP1;P1;durP2;ratioP2;P2;SDS_P1;SDS_P2;PMS_P1;PMS_P2;Temp;Humidity;BMP_temperature;BMP_pressure;BME280_temperature;BME280_humidity;BME280_pressure;Samples;Min_cycle;Max_cycle;Signal;HPM_P1;HPM_P2
2022/02/06 00:02:19;;;;;;;8.05;6.18;;;6.80;99.90;;;;;;5094008;28;20222;-73
2022/02/06 00:04:48;;;;;;;6.28;5.30;;;6.90;99.90;;;;;;5094003;28;20198;-70
2022/02/06 00:07:17;;;;;;;6.30;5.22;;;6.90;99.90;;;;;;5093611;28;20295;-70
2022/02/06 00:09:45;;;;;;;8.18;6.25;;;6.90;99.90;;;;;;5093351;28;20557;-71
2022/02/06 00:12:13;;;;;;;6.93;5.20;;;6.90;99.90;;;;;;5091876;28;20698;-70
2022/02/06 00:14:40;;;;;;;7.35;5.65;;;6.90;99.90;;;;;;5093552;28;20289;-71
2022/02/06 00:17:07;;;;;;;8.10;6.00;;;7.00;99.90;;;;;;5114448;28;20573;-70
2022/02/06 00:19:35;;;;;;;8.23;5.97;;;7.00;99.90;;;;;;5113689;28;20193;-70
2022/02/06 00:22:06;;;;;;;10.38;6.55;;;7.00;99.90;;;;;;5113814;28;20566;-69
2022/02/06 00:24:40;;;;;;;10.43;5.75;;;7.00;99.90;;;;;;5112183;28;20193;-70
2022/02/06 00:27:11;;;;;;;5.07;4.65;;;7.00;99.90;;;;;;5093396;28;20228;-71
2022/02/06 00:29:48;;;;;;;5.30;4.80;;;7.10;99.90;;;;;;5093190;28;20188;-70
2022/02/06 00:32:28;;;;;;;7.72;4.93;;;7.10;99.90;;;;;;5093320;28;20221;-70
2022/02/06 00:40:38;;;;;;;6.40;5.07;;;7.10;99.90;;;;;;5092857;28;20209;-71
2022/02/06 00:43:05;;;;;;;8.18;4.15;;;7.10;99.90;;;;;;5092659;28;20273;-70
2022/02/06 00:45:32;;;;;;;9.30;5.03;;;7.10;99.90;;;;;;5105597;28;20574;-71
2022/02/06 00:47:59;;;;;;;7.20;4.72;;;7.10;99.90;;;;;;5114334;28;20290;-71
2022/02/06 00:50:27;;;;;;;7.40;4.68;;;7.10;99.90;;;;;;5114041;28;20212;-70
2022/02/06 00:53:05;;;;;;;7.75;4.60;;;7.10;99.90;;;;;;5114344;28;20228;-70
2022/02/06 00:55:32;;;;;;;5.10;3.88;;;7.10;99.90;;;;;;5114550;28;20297;-69
2022/02/06 00:57:59;;;;;;;5.78;4.55;;;7.10;99.90;;;;;;5114021;28;20215;-69
2022/02/06 01:00:27;;;;;;;5.95;4.07;;;7.20;99.90;;;;;;5097250;28;20239;-71
2022/02/06 01:02:54;;;;;;;6.15;4.18;;;7.20;99.90;;;;;;5093934;28;20705;-70
2022/02/06 01:05:25;;;;;;;6.05;4.43;;;7.20;99.90;;;;;;5094298;28;20884;-71
2022/02/06 01:07:53;;;;;;;4.82;4.05;;;7.20;99.90;;;;;;5096195;28;20246;-71
2022/02/06 01:10:23;;;;;;;5.50;4.35;;;7.20;99.90;;;;;;5092632;28;20210;-71
2022/02/06 01:12:55;;;;;;;5.78;3.90;;;7.20;99.90;;;;;;5093968;28;20314;-70
2022/02/06 01:15:26;;;;;;;4.35;3.95;;;7.20;99.90;;;;;;5102261;28;20202;-69
2022/02/06 01:17:58;;;;;;;5.85;4.40;;;7.20;99.90;;;;;;5100936;28;20713;-71
2022/02/06 01:20:31;;;;;;;4.70;4.20;;;7.20;99.90;;;;;;5096260;28;20216;-71
2022/02/06 01:23:03;;;;;;;9.18;5.05;;;7.20;99.90;;;;;;5097124;28;20214;-71
2022/02/06 01:25:36;;;;;;;5.35;3.80;;;7.20;99.90;;;;;;5107626;28;20229;-70
2022/02/06 01:28:07;;;;;;;4.68;4.22;;;7.20;99.90;;;;;;5110002;28;20212;-70
2022/02/06 01:30:44;;;;;;;5.00;3.75;;;7.20;99.90;;;;;;5103276;28;20586;-70
2022/02/06 01:33:15;;;;;;;6.15;5.10;;;7.20;99.90;;;;;;5103970;28;20228;-71
2022/02/06 01:35:48;;;;;;;5.85;4.07;;;7.20;99.90;;;;;;5114695;28;20195;-70
2022/02/06 01:38:20;;;;;;;6.00;4.15;;;7.20;99.90;;;;;;5101139;28;20199;-72
2022/02/06 01:41:03;;;;;;;5.60;4.32;;;7.20;99.90;;;;;;5108902;28;20219;-71
2022/02/06 01:43:38;;;;;;;4.75;4.35;;;7.20;99.90;;;;;;5098706;28;20584;-70
2022/02/06 01:46:25;;;;;;;8.65;4.25;;;7.20;99.90;;;;;;5104771;28;20323;-69
2022/02/06 02:02:53;;;;;;;4.78;3.92;;;7.30;99.90;;;;;;5110907;28;20222;-70
2022/02/06 02:08:33;;;;;;;7.15;4.47;;;7.30;99.90;;;;;;5100786;28;20218;-71
2022/02/06 02:14:07;;;;;;;5.05;4.55;;;7.30;99.90;;;;;;5084494;28;20655;-70
2022/02/06 02:22:43;;;;;;;7.63;4.15;;;7.40;99.90;;;;;;5098600;28;20689;-70
2022/02/06 02:28:12;;;;;;;10.90;4.20;;;7.40;99.90;;;;;;5101948;28;20196;-71
2022/02/06 02:31:00;;;;;;;6.63;4.00;;;7.40;99.90;;;;;;5098342;28;20648;-71
2022/02/06 02:47:44;;;;;;;9.10;4.55;;;7.50;99.90;;;;;;5099149;28;20228;-69
2022/02/06 02:53:31;;;;;;;3.63;3.33;;;7.50;99.90;;;;;;5089849;28;20302;-71
2022/02/06 02:56:11;;;;;;;4.72;4.25;;;7.50;99.90;;;;;;5075555;28;20190;-71
2022/02/06 02:58:52;;;;;;;6.65;4.40;;;7.50;99.90;;;;;;5075633;28;20196;-70
2022/02/06 03:01:42;;;;;;;4.97;3.53;;;7.50;99.90;;;;;;5073673;28;20222;-70
2022/02/06 03:04:09;;;;;;;4.18;3.78;;;7.50;99.90;;;;;;5075428;28;20201;-71
2022/02/06 03:06:38;;;;;;;6.88;4.32;;;7.50;99.90;;;;;;5085312;28;20308;-71
2022/02/06 03:09:05;;;;;;;6.53;3.53;;;7.50;99.90;;;;;;5104248;28;20242;-70
2022/02/06 03:11:34;;;;;;;5.68;4.30;;;7.50;99.90;;;;;;5109998;28;20228;-71
2022/02/06 03:14:06;;;;;;;4.50;3.70;;;7.50;99.90;;;;;;5108468;28;20200;-71
2022/02/06 03:16:38;;;;;;;4.97;3.75;;;7.50;99.90;;;;;;5110575;28;20193;-71
2022/02/06 03:19:09;;;;;;;3.75;3.38;;;7.50;99.90;;;;;;5104879;28;20204;-71
2022/02/06 03:21:37;;;;;;;7.90;4.05;;;7.50;99.90;;;;;;5111317;28;20240;-70
2022/02/06 03:24:21;;;;;;;4.70;3.40;;;7.60;99.90;;;;;;5088451;28;20204;-71
2022/02/06 03:26:50;;;;;;;5.28;3.42;;;7.60;99.90;;;;;;5101032;28;20582;-70
2022/02/06 03:29:19;;;;;;;8.02;4.60;;;7.60;99.90;;;;;;5096984;28;20204;-71
2022/02/06 03:31:48;;;;;;;6.47;3.83;;;7.60;99.90;;;;;;5103444;28;20554;-71
2022/02/06 03:34:15;;;;;;;4.82;3.83;;;7.60;99.90;;;;;;5093607;28;20297;-72
2022/02/06 03:36:42;;;;;;;4.25;3.20;;;7.60;99.90;;;;;;5089713;28;20293;-71
2022/02/06 03:39:10;;;;;;;3.70;3.25;;;7.60;99.90;;;;;;5113422;28;20201;-71
2022/02/06 03:41:51;;;;;;;5.38;2.75;;;7.70;99.90;;;;;;5099538;28;20259;-71
2022/02/06 03:44:25;;;;;;;4.00;3.70;;;7.60;99.90;;;;;;5093244;28;20569;-70
2022/02/06 03:47:02;;;;;;;4.05;3.17;;;7.70;99.90;;;;;;5086379;28;20222;-70
2022/02/06 03:49:39;;;;;;;3.08;2.88;;;7.70;99.90;;;;;;5092590;28;20209;-69
2022/02/06 03:52:06;;;;;;;4.32;3.03;;;7.70;99.90;;;;;;5095700;28;20225;-69
2022/02/06 03:54:33;;;;;;;3.30;2.88;;;7.70;99.90;;;;;;5102386;28;20200;-70
2022/02/06 03:57:00;;;;;;;4.40;2.95;;;7.70;99.90;;;;;;5103048;28;20295;-70
2022/02/06 03:59:30;;;;;;;4.25;2.80;;;7.70;99.90;;;;;;5105582;28;20200;-70
2022/02/06 04:01:57;;;;;;;5.38;2.72;;;7.70;99.90;;;;;;5094129;28;20236;-70
2022/02/06 04:04:24;;;;;;;3.55;3.05;;;7.80;99.90;;;;;;5102240;28;20201;-70
2022/02/06 04:06:51;;;;;;;3.45;2.95;;;7.70;99.90;;;;;;5106021;28;20216;-70
2022/02/06 04:09:29;;;;;;;3.17;2.63;;;7.80;99.90;;;;;;5107907;28;20204;-70
2022/02/06 04:11:57;;;;;;;6.22;2.97;;;7.80;99.90;;;;;;5102185;28;20220;-70
2022/02/06 04:14:27;;;;;;;5.20;3.35;;;7.80;99.90;;;;;;5094410;28;20209;-71
2022/02/06 04:16:58;;;;;;;3.63;3.10;;;7.80;99.90;;;;;;5094594;28;20190;-70
2022/02/06 04:19:25;;;;;;;4.55;3.10;;;7.80;99.90;;;;;;5094429;28;20210;-69
2022/02/06 04:21:53;;;;;;;4.82;3.75;;;7.80;99.90;;;;;;5097607;28;20221;-71
2022/02/06 04:24:20;;;;;;;3.58;3.28;;;7.80;99.90;;;;;;5094373;28;20231;-70
2022/02/06 04:26:48;;;;;;;3.30;3.00;;;7.80;99.90;;;;;;5104432;28;20750;-70
2022/02/06 04:29:15;;;;;;;2.92;2.65;;;7.80;99.90;;;;;;5097335;28;20210;-69
2022/02/06 04:31:43;;;;;;;5.40;3.45;;;7.80;99.90;;;;;;5108205;28;20310;-69
2022/02/06 04:34:14;;;;;;;4.43;3.60;;;7.80;99.90;;;;;;5105671;28;20250;-70
2022/02/06 04:36:49;;;;;;;5.00;3.55;;;7.80;99.90;;;;;;5104845;28;20193;-69
2022/02/06 04:39:38;;;;;;;5.30;3.55;;;7.80;99.90;;;;;;5108935;28;20203;-70
2022/02/06 04:42:16;;;;;;;2.78;2.50;;;7.80;99.90;;;;;;5114031;28;20233;-71
2022/02/06 04:45:26;;;;;;;3.53;2.55;;;7.80;99.90;;;;;;5112937;28;20638;-69
2022/02/06 05:16:12;;;;;;;4.50;3.40;;;7.90;99.90;;;;;;5097148;28;20231;-72
2022/02/06 05:29:36;;;;;;;3.38;2.80;;;8.00;99.90;;;;;;5098871;28;20190;-70
2022/02/06 05:32:16;;;;;;;6.50;2.75;;;8.00;99.90;;;;;;5099252;28;20224;-71
2022/02/06 05:34:43;;;;;;;3.45;3.13;;;8.00;99.90;;;;;;5087222;28;20206;-70
2022/02/06 05:37:10;;;;;;;3.85;3.30;;;8.00;99.90;;;;;;5107204;28;20228;-71
2022/02/06 05:39:38;;;;;;;3.35;3.05;;;8.00;99.90;;;;;;5110747;28;20210;-70
2022/02/06 05:42:06;;;;;;;3.58;3.25;;;8.00;99.90;;;;;;5099775;28;20252;-70
2022/02/06 05:44:35;;;;;;;3.60;2.85;;;8.10;99.90;;;;;;5107500;28;20654;-69
2022/02/06 05:47:02;;;;;;;3.60;2.78;;;8.10;99.90;;;;;;5104923;28;20221;-70
2022/02/06 05:49:29;;;;;;;4.70;3.47;;;8.10;99.90;;;;;;5105270;28;20244;-70
2022/02/06 05:51:57;;;;;;;6.20;2.90;;;8.10;99.90;;;;;;5104069;28;20320;-71
2022/02/06 05:54:23;;;;;;;2.90;2.55;;;8.10;99.90;;;;;;5104933;28;20564;-70
2022/02/06 05:56:52;;;;;;;3.67;2.90;;;8.10;99.90;;;;;;5110276;28;20277;-70
2022/02/06 05:59:19;;;;;;;3.47;3.13;;;8.10;99.90;;;;;;5106959;28;20200;-70
2022/02/06 06:01:46;;;;;;;3.10;2.80;;;8.10;99.90;;;;;;5102459;28;20321;-70
2022/02/06 06:04:12;;;;;;;4.00;3.03;;;8.10;99.90;;;;;;5095943;28;20202;-71
2022/02/06 06:06:39;;;;;;;4.80;3.67;;;8.10;99.90;;;;;;5108735;28;20214;-70
2022/02/06 06:09:06;;;;;;;5.10;3.60;;;8.10;99.90;;;;;;5113286;28;20198;-71
2022/02/06 06:11:33;;;;;;;4.30;3.90;;;8.20;99.90;;;;;;5105429;28;20245;-71
2022/02/06 06:14:02;;;;;;;5.13;3.67;;;8.20;99.90;;;;;;5109131;28;20284;-71
2022/02/06 06:16:29;;;;;;;5.93;3.47;;;8.20;99.90;;;;;;5115131;28;20212;-71
2022/02/06 06:18:56;;;;;;;3.35;3.05;;;8.20;99.90;;;;;;5111455;27;20240;-70
2022/02/06 06:21:26;;;;;;;4.20;3.38;;;8.10;99.90;;;;;;5112915;28;20200;-69
2022/02/06 06:23:55;;;;;;;5.03;2.90;;;8.10;99.90;;;;;;5109176;28;20202;-68
2022/02/06 06:26:24;;;;;;;5.47;3.35;;;8.20;99.90;;;;;;5112471;28;20197;-71
2022/02/06 06:28:51;;;;;;;3.78;3.08;;;8.20;99.90;;;;;;5107028;28;20201;-69
2022/02/06 06:31:21;;;;;;;5.43;2.50;;;8.20;99.90;;;;;;5110123;28;20202;-72
2022/02/06 06:33:48;;;;;;;2.55;2.35;;;8.20;99.90;;;;;;5106594;28;21423;-71
2022/02/06 06:36:15;;;;;;;3.40;2.65;;;8.20;99.90;;;;;;5108914;28;20194;-72
2022/02/06 06:38:42;;;;;;;7.38;2.35;;;8.20;99.90;;;;;;5111582;27;20674;-71
2022/02/06 06:41:09;;;;;;;4.68;3.33;;;8.20;99.90;;;;;;5109477;28;20685;-69
2022/02/06 06:43:36;;;;;;;7.10;2.58;;;8.20;99.90;;;;;;5108895;28;20280;-72
2022/02/06 06:46:03;;;;;;;4.57;4.13;;;8.40;99.90;;;;;;5107069;28;20682;-73
2022/02/06 06:48:32;;;;;;;8.20;3.15;;;8.20;99.90;;;;;;5107950;28;20209;-71
2022/02/06 06:51:00;;;;;;;3.50;2.05;;;8.20;99.90;;;;;;5098383;28;20538;-72
2022/02/06 06:53:28;;;;;;;3.78;2.50;;;8.20;99.90;;;;;;5104559;28;20285;-70
2022/02/06 06:56:00;;;;;;;5.93;2.50;;;8.30;99.90;;;;;;5104604;28;20205;-70
2022/02/06 06:58:29;;;;;;;7.60;3.42;;;8.30;99.90;;;;;;5111633;28;20270;-70
2022/02/06 07:01:08;;;;;;;2.88;2.67;;;8.30;99.90;;;;;;5104816;28;20292;-70
2022/02/06 07:03:38;;;;;;;5.13;2.80;;;8.20;99.90;;;;;;5103276;28;20207;-71
2022/02/06 07:06:05;;;;;;;2.88;2.58;;;8.30;99.90;;;;;;5104430;28;20289;-71
2022/02/06 07:08:31;;;;;;;4.78;2.85;;;8.30;99.90;;;;;;5101110;28;20308;-70
2022/02/06 07:10:59;;;;;;;3.38;2.83;;;8.30;99.90;;;;;;5105109;28;20293;-71
2022/02/06 07:13:25;;;;;;;4.22;2.95;;;8.20;99.90;;;;;;5105504;28;20232;-71
2022/02/06 07:15:54;;;;;;;7.00;3.28;;;8.20;99.90;;;;;;5108947;28;20198;-70
2022/02/06 07:18:21;;;;;;;6.38;4.15;;;8.20;99.90;;;;;;5112892;28;20281;-71
2022/02/06 07:20:52;;;;;;;5.95;3.75;;;8.30;99.90;;;;;;5106818;28;20202;-70
2022/02/06 07:23:18;;;;;;;4.80;2.80;;;8.30;99.90;;;;;;5109616;28;20217;-69
2022/02/06 07:25:50;;;;;;;4.32;3.58;;;8.30;99.90;;;;;;5114454;28;20211;-71
2022/02/06 07:28:18;;;;;;;3.67;3.35;;;8.30;99.90;;;;;;5110905;28;20208;-69
2022/02/06 07:30:46;;;;;;;4.43;3.20;;;8.30;99.90;;;;;;5107418;28;20271;-71
2022/02/06 07:33:17;;;;;;;4.80;4.15;;;8.30;99.90;;;;;;5110318;28;20213;-71
2022/02/06 07:35:44;;;;;;;4.35;3.88;;;8.40;99.90;;;;;;5096478;28;20217;-70
2022/02/06 07:38:14;;;;;;;6.68;4.35;;;8.40;99.90;;;;;;5090175;28;20198;-69
2022/02/06 07:40:42;;;;;;;6.45;3.72;;;8.40;99.90;;;;;;5107570;28;20206;-70
2022/02/06 07:43:09;;;;;;;5.30;3.65;;;8.40;99.90;;;;;;5106642;28;20706;-71
2022/02/06 07:45:37;;;;;;;7.93;4.60;;;8.40;99.90;;;;;;5103908;28;20209;-71
2022/02/06 07:48:07;;;;;;;5.00;4.20;;;8.40;99.90;;;;;;5113804;28;20711;-71
2022/02/06 07:50:34;;;;;;;6.65;5.30;;;8.50;99.90;;;;;;5097193;28;20199;-75
2022/02/06 07:53:01;;;;;;;5.50;3.67;;;8.50;99.90;;;;;;5114826;28;20279;-72
2022/02/06 07:55:29;;;;;;;4.68;3.40;;;8.40;99.90;;;;;;5100889;28;20197;-70
2022/02/06 07:57:58;;;;;;;4.57;4.15;;;8.50;99.90;;;;;;5105475;28;20201;-72
2022/02/06 08:00:25;;;;;;;5.07;4.07;;;8.50;99.90;;;;;;5103173;28;20664;-70
2022/02/06 08:02:52;;;;;;;4.63;3.85;;;8.50;99.90;;;;;;5113036;28;20351;-71
2022/02/06 08:05:19;;;;;;;5.25;3.95;;;8.50;99.90;;;;;;5094769;28;20609;-73
2022/02/06 08:07:49;;;;;;;5.15;4.57;;;8.50;99.90;;;;;;5109501;28;20263;-72
2022/02/06 08:10:22;;;;;;;5.05;3.35;;;8.60;99.90;;;;;;5094524;28;20249;-71
2022/02/06 08:12:55;;;;;;;3.78;3.33;;;8.60;99.90;;;;;;5104889;28;20251;-71
2022/02/06 08:15:24;;;;;;;6.90;3.72;;;8.60;99.90;;;;;;5094391;28;20211;-77
2022/02/06 08:17:51;;;;;;;3.70;3.40;;;8.60;99.90;;;;;;5111722;28;20189;-77
2022/02/06 08:20:19;;;;;;;5.35;3.58;;;8.70;99.90;;;;;;5108609;28;20197;-73
2022/02/06 08:22:46;;;;;;;5.78;3.67;;;8.70;99.90;;;;;;5105360;28;20294;-75
2022/02/06 08:25:14;;;;;;;4.03;3.05;;;8.70;99.90;;;;;;5105860;28;20288;-76
2022/02/06 08:27:42;;;;;;;3.53;2.83;;;8.70;99.90;;;;;;5106759;28;20600;-76
2022/02/06 08:30:13;;;;;;;3.63;3.33;;;8.70;99.90;;;;;;5107686;28;20201;-76
2022/02/06 08:32:41;;;;;;;2.90;2.58;;;8.70;99.90;;;;;;5099898;28;20222;-73
2022/02/06 08:35:09;;;;;;;9.18;2.55;;;8.70;99.90;;;;;;5097973;28;20213;-73
2022/02/06 08:37:37;;;;;;;4.55;3.10;;;8.80;99.90;;;;;;5102723;28;20285;-71
2022/02/06 08:40:12;;;;;;;5.43;3.40;;;8.80;99.90;;;;;;5109919;28;20644;-71
2022/02/06 08:42:39;;;;;;;7.97;3.20;;;8.80;99.90;;;;;;5087177;28;20584;-72
2022/02/06 08:45:07;;;;;;;4.22;3.10;;;8.90;99.90;;;;;;5111472;28;20200;-71
2022/02/06 08:47:35;;;;;;;7.32;3.40;;;8.90;99.90;;;;;;5101703;28;20224;-72
2022/02/06 08:50:02;;;;;;;7.47;3.80;;;9.00;99.90;;;;;;5105996;28;20218;-75
2022/02/06 08:52:29;;;;;;;7.82;3.80;;;9.00;99.90;;;;;;5096095;28;20304;-72
2022/02/06 08:54:56;;;;;;;5.65;3.50;;;9.10;99.90;;;;;;5089077;28;20207;-71
2022/02/06 08:57:25;;;;;;;13.98;3.85;;;9.00;99.90;;;;;;5088292;28;20210;-69
2022/02/06 08:59:53;;;;;;;13.65;4.78;;;9.10;99.90;;;;;;5103066;28;20193;-73
2022/02/06 09:02:20;;;;;;;5.82;3.53;;;9.10;99.90;;;;;;5091433;28;20232;-70
2022/02/06 09:04:49;;;;;;;7.15;4.40;;;9.10;99.90;;;;;;5092829;28;20203;-71
2022/02/06 09:07:16;;;;;;;4.40;3.13;;;9.20;99.90;;;;;;5106954;28;20201;-71
2022/02/06 09:09:47;;;;;;;8.10;3.58;;;9.10;99.90;;;;;;5105143;28;20269;-71
2022/02/06 09:12:15;;;;;;;8.05;3.65;;;9.10;99.90;;;;;;5096675;28;20217;-69
2022/02/06 09:14:42;;;;;;;6.30;3.60;;;9.10;99.90;;;;;;5105148;28;20659;-71
2022/02/06 09:17:10;;;;;;;7.97;3.55;;;9.20;99.90;;;;;;5110168;28;20254;-70
2022/02/06 09:19:39;;;;;;;11.10;4.13;;;9.20;99.90;;;;;;5087702;28;20203;-70
2022/02/06 09:22:09;;;;;;;8.27;4.22;;;9.20;99.90;;;;;;5092496;28;20744;-72
2022/02/06 09:24:36;;;;;;;10.05;4.05;;;9.20;99.90;;;;;;5089201;28;20211;-72
2022/02/06 09:27:03;;;;;;;3.33;3.03;;;9.20;99.90;;;;;;5083683;28;20234;-70
2022/02/06 09:29:30;;;;;;;7.15;3.58;;;9.10;99.90;;;;;;5097194;28;20254;-69
2022/02/06 09:31:57;;;;;;;;;;;;;;;;;;;;;
2022/02/06 09:36:50;;;;;;;5.53;3.50;;;9.00;99.90;;;;;;5095312;28;20201;-73
2022/02/06 09:39:18;;;;;;;5.10;4.18;;;9.00;99.90;;;;;;5091002;28;20456;-72
2022/02/06 09:41:48;;;;;;;7.70;4.72;;;9.10;99.90;;;;;;5086350;28;20218;-71
2022/02/06 09:44:20;;;;;;;4.30;3.88;;;9.10;99.90;;;;;;5092545;28;20198;-73
2022/02/06 09:46:47;;;;;;;5.80;3.63;;;9.10;99.90;;;;;;5089951;28;20198;-70
2022/02/06 09:49:16;;;;;;;4.57;3.30;;;9.10;99.90;;;;;;5113394;28;20214;-70
2022/02/06 09:51:44;;;;;;;3.80;3.30;;;9.10;99.90;;;;;;5091889;28;20222;-72
2022/02/06 09:54:12;;;;;;;4.53;2.85;;;9.00;99.90;;;;;;5095177;28;20229;-73
2022/02/06 09:56:45;;;;;;;4.10;2.97;;;8.90;99.90;;;;;;5097182;28;20198;-72
2022/02/06 09:59:18;;;;;;;5.63;3.05;;;8.90;99.90;;;;;;5093806;28;20190;-71
2022/02/06 10:01:49;;;;;;;3.35;2.97;;;8.90;99.90;;;;;;5116549;28;20266;-71
2022/02/06 10:04:20;;;;;;;3.33;2.30;;;8.80;99.90;;;;;;5090221;28;20232;-74
2022/02/06 10:06:58;;;;;;;3.00;2.40;;;8.80;99.90;;;;;;5084145;28;20203;-72
2022/02/06 10:09:31;;;;;;;2.88;2.50;;;8.80;99.90;;;;;;5083919;28;20258;-68
2022/02/06 10:12:01;;;;;;;3.05;2.60;;;8.80;99.90;;;;;;5090287;28;20220;-69
2022/02/06 10:14:29;;;;;;;2.45;2.15;;;8.80;99.90;;;;;;5103832;28;20292;-69
2022/02/06 10:16:56;;;;;;;3.45;2.53;;;8.70;99.90;;;;;;5112536;28;20202;-69
2022/02/06 10:19:23;;;;;;;2.55;2.10;;;8.70;99.90;;;;;;5098414;28;20634;-68
2022/02/06 10:21:50;;;;;;;4.35;1.73;;;8.70;99.90;;;;;;5088866;28;20218;-69
2022/02/06 10:24:27;;;;;;;4.80;2.30;;;8.60;99.90;;;;;;5096288;28;20198;-69
2022/02/06 10:27:12;;;;;;;2.40;2.20;;;8.70;99.90;;;;;;5092063;28;20198;-70
2022/02/06 10:29:43;;;;;;;3.13;2.00;;;8.70;99.90;;;;;;5093638;28;20258;-68
2022/02/06 10:32:17;;;;;;;3.28;2.10;;;8.70;99.90;;;;;;5113700;28;20213;-69
2022/02/06 10:34:44;;;;;;;2.30;2.00;;;8.70;99.90;;;;;;5107212;28;20228;-70
2022/02/06 10:37:13;;;;;;;2.00;1.60;;;8.60;99.90;;;;;;5110938;28;20607;-69
2022/02/06 10:39:52;;;;;;;1.90;1.65;;;8.60;99.90;;;;;;5104357;28;20296;-69
2022/02/06 10:42:21;;;;;;;2.67;1.80;;;8.60;99.90;;;;;;5087847;28;20241;-69
2022/02/06 10:44:51;;;;;;;2.22;1.50;;;8.60;99.90;;;;;;5107435;28;20292;-70
2022/02/06 10:47:32;;;;;;;1.85;1.60;;;8.60;99.90;;;;;;5080754;28;20657;-70
2022/02/06 10:50:06;;;;;;;1.98;1.40;;;8.60;99.90;;;;;;5093673;28;20217;-70
2022/02/06 10:52:33;;;;;;;1.77;1.48;;;8.60;99.90;;;;;;5102179;28;20226;-70
2022/02/06 10:55:00;;;;;;;2.65;1.83;;;8.70;99.90;;;;;;5109170;28;20239;-69
2022/02/06 10:57:28;;;;;;;2.40;1.45;;;8.70;99.90;;;;;;5110153;28;20281;-70
2022/02/06 10:59:58;;;;;;;2.65;1.90;;;8.60;99.90;;;;;;5095152;28;20201;-68
2022/02/06 11:02:27;;;;;;;1.52;1.30;;;8.70;99.90;;;;;;5107337;28;20258;-71
2022/02/06 11:05:06;;;;;;;2.60;1.65;;;8.60;99.90;;;;;;5106711;28;20198;-69
2022/02/06 11:07:33;;;;;;;2.05;1.60;;;8.60;99.90;;;;;;5092579;28;20293;-69
2022/02/06 11:10:08;;;;;;;2.20;1.95;;;8.60;99.90;;;;;;5098066;28;20225;-71
2022/02/06 11:12:36;;;;;;;3.25;1.75;;;8.60;99.90;;;;;;5091811;28;20213;-72
2022/02/06 11:15:05;;;;;;;2.20;1.42;;;8.60;99.90;;;;;;5099222;28;20285;-70
2022/02/06 11:17:36;;;;;;;2.25;1.95;;;8.60;99.90;;;;;;5099903;28;20234;-71
2022/02/06 11:20:07;;;;;;;3.17;1.80;;;8.60;99.90;;;;;;5094538;28;20198;-69
2022/02/06 11:22:35;;;;;;;2.83;1.50;;;8.60;99.90;;;;;;5101734;28;20524;-71
2022/02/06 11:25:05;;;;;;;2.13;1.70;;;8.60;99.90;;;;;;5100958;28;20247;-70
2022/02/06 11:27:33;;;;;;;1.67;1.33;;;8.70;99.90;;;;;;5081561;28;20210;-71
2022/02/06 11:30:01;;;;;;;2.53;1.70;;;8.70;99.90;;;;;;5080368;28;20309;-69
2022/02/06 11:32:29;;;;;;;1.65;1.55;;;8.70;99.90;;;;;;5084134;28;20240;-68
2022/02/06 11:34:58;;;;;;;4.55;1.65;;;8.70;99.90;;;;;;5076783;28;20392;-69
2022/02/06 11:43:53;;;;;;;2.53;2.10;;;8.60;99.90;;;;;;5076279;28;20352;-71
2022/02/06 11:46:30;;;;;;;1.30;1.20;;;8.60;99.90;;;;;;5076644;28;20269;-70
2022/02/06 11:49:08;;;;;;;3.25;1.90;;;8.60;99.90;;;;;;5074643;28;20218;-70
2022/02/06 11:51:35;;;;;;;2.60;1.50;;;8.60;99.90;;;;;;5075660;28;20229;-69
2022/02/06 11:54:27;;;;;;;2.40;1.30;;;8.50;99.90;;;;;;5075004;28;20319;-69
2022/02/06 11:57:19;;;;;;;2.58;1.00;;;8.50;99.90;;;;;;5074268;28;20202;-69
2022/02/06 12:00:21;;;;;;;2.28;1.13;;;8.60;99.90;;;;;;5074677;28;20369;-70
2022/02/06 12:02:49;;;;;;;2.40;1.08;;;8.50;99.90;;;;;;5071528;28;20320;-69
2022/02/06 12:05:26;;;;;;;3.17;1.60;;;8.50;99.90;;;;;;5076739;28;20213;-69
2022/02/06 12:08:04;;;;;;;1.58;1.40;;;8.50;99.90;;;;;;5082220;28;20273;-69
2022/02/06 12:11:15;;;;;;;2.65;1.30;;;8.50;99.90;;;;;;5074922;28;20341;-69
2022/02/06 12:13:42;;;;;;;1.75;1.20;;;8.60;99.90;;;;;;5072898;28;20650;-68
2022/02/06 12:16:19;;;;;;;1.60;1.35;;;8.60;99.90;;;;;;5086022;28;20228;-70
2022/02/06 12:18:46;;;;;;;2.58;0.93;;;8.50;99.90;;;;;;5102089;28;20737;-68
2022/02/06 12:21:19;;;;;;;1.55;1.40;;;8.50;99.90;;;;;;5111652;28;20200;-70
2022/02/06 12:23:50;;;;;;;3.42;1.40;;;8.50;99.90;;;;;;5077172;28;20776;-69
2022/02/06 12:26:45;;;;;;;2.05;1.23;;;8.50;99.90;;;;;;5075356;28;20212;-68
2022/02/06 12:29:21;;;;;;;1.33;1.20;;;8.50;99.90;;;;;;5065071;28;20222;-69
2022/02/06 12:31:57;;;;;;;1.73;1.15;;;8.50;99.90;;;;;;5072568;28;20253;-68
2022/02/06 12:37:33;;;;;;;1.60;1.00;;;7.40;99.90;;;;;;5102728;28;20579;-68
2022/02/06 12:40:04;;;;;;;3.83;1.27;;;7.10;99.90;;;;;;5096697;28;20590;-76
2022/02/06 12:42:33;;;;;;;1.08;0.82;;;6.80;99.90;;;;;;5102520;28;20688;-72
2022/02/06 12:45:03;;;;;;;2.95;1.00;;;6.60;99.90;;;;;;5096108;28;20280;-72
2022/02/06 12:47:32;;;;;;;2.08;0.80;;;6.50;99.90;;;;;;5102889;28;20629;-71
2022/02/06 12:49:59;;;;;;;3.00;1.00;;;6.40;99.90;;;;;;5107929;28;20631;-73
2022/02/06 12:52:27;;;;;;;2.17;1.10;;;6.40;99.90;;;;;;5103388;28;20324;-70
2022/02/06 12:54:55;;;;;;;2.42;0.90;;;6.30;99.90;;;;;;5091549;28;20196;-69
2022/02/06 12:57:22;;;;;;;5.10;1.63;;;6.20;99.90;;;;;;5096438;28;20247;-70
2022/02/06 12:59:52;;;;;;;3.22;1.60;;;6.10;99.90;;;;;;5093468;28;20190;-71
2022/02/06 13:02:24;;;;;;;4.05;2.58;;;6.10;99.90;;;;;;5112932;28;20225;-72
2022/02/06 13:05:13;;;;;;;5.32;2.60;;;6.10;99.90;;;;;;5108188;28;20229;-71
2022/02/06 13:07:44;;;;;;;8.07;2.70;;;6.10;99.90;;;;;;5100667;28;20200;-72
2022/02/06 13:10:14;;;;;;;2.95;2.63;;;6.10;99.90;;;;;;5104123;28;20211;-71
2022/02/06 13:12:51;;;;;;;5.90;2.50;;;6.10;99.90;;;;;;5099468;28;20224;-72
2022/02/06 13:15:39;;;;;;;2.10;1.77;;;6.10;99.90;;;;;;5096257;28;20288;-71
2022/02/06 13:18:42;;;;;;;1.98;1.77;;;6.10;99.90;;;;;;5090051;28;20196;-72
2022/02/06 13:24:08;;;;;;;3.22;1.25;;;5.90;99.90;;;;;;5083977;27;20190;-72
2022/02/06 13:26:49;;;;;;;2.03;1.25;;;5.80;99.90;;;;;;5092808;28;20209;-71
2022/02/06 13:29:29;;;;;;;3.70;1.85;;;5.70;99.90;;;;;;5092065;28;20322;-72
2022/02/06 13:35:04;;;;;;;2.58;2.05;;;5.80;99.90;;;;;;5080582;28;20200;-72
2022/02/06 13:37:43;;;;;;;7.57;2.20;;;5.80;99.90;;;;;;5082883;28;20211;-72
2022/02/06 13:40:16;;;;;;;3.20;1.65;;;5.70;99.90;;;;;;5097161;28;20191;-71
2022/02/06 13:43:01;;;;;;;3.55;1.13;;;5.70;99.90;;;;;;5102530;28;20700;-71
2022/02/06 13:45:29;;;;;;;2.35;1.65;;;5.60;99.90;;;;;;5077028;28;20283;-71
2022/02/06 13:47:58;;;;;;;2.47;1.70;;;5.60;99.90;;;;;;5087237;28;20211;-71
2022/02/06 13:50:27;;;;;;;3.50;1.45;;;5.60;99.90;;;;;;5100410;28;20226;-72
2022/02/06 13:53:17;;;;;;;3.60;2.05;;;5.60;99.90;;;;;;5093359;28;20219;-71
2022/02/06 13:55:45;;;;;;;3.15;2.35;;;5.60;99.90;;;;;;5091350;28;20244;-71
2022/02/06 13:58:15;;;;;;;2.20;1.60;;;5.70;99.90;;;;;;5107827;28;20373;-71
2022/02/06 14:00:58;;;;;;;2.33;1.73;;;5.70;99.90;;;;;;5089462;28;20265;-71
2022/02/06 14:03:44;;;;;;;3.50;1.58;;;5.70;99.90;;;;;;5078161;28;20322;-70
2022/02/06 14:06:13;;;;;;;2.65;1.77;;;5.70;99.90;;;;;;5074900;28;20640;-70
2022/02/06 14:08:57;;;;;;;3.47;2.13;;;5.70;99.90;;;;;;5078387;28;20205;-71
2022/02/06 14:11:29;;;;;;;3.08;1.63;;;5.80;99.90;;;;;;5075816;28;20283;-71
2022/02/06 14:14:18;;;;;;;2.47;2.28;;;5.80;99.90;;;;;;5093856;28;20203;-71
2022/02/06 14:16:46;;;;;;;1.63;1.52;;;5.90;99.90;;;;;;5097621;28;20196;-69
2022/02/06 14:19:32;;;;;;;3.00;1.83;;;6.00;99.90;;;;;;5094882;28;20213;-69
2022/02/06 14:22:00;;;;;;;2.67;1.92;;;6.10;99.90;;;;;;5098430;28;20322;-71
2022/02/06 14:24:27;;;;;;;2.22;1.70;;;6.20;99.90;;;;;;5080608;28;20285;-71
2022/02/06 14:27:03;;;;;;;4.95;1.80;;;6.20;99.90;;;;;;5079807;28;20198;-72
2022/02/06 14:29:32;;;;;;;1.67;1.58;;;6.30;99.90;;;;;;5078373;28;20212;-71
2022/02/06 14:32:12;;;;;;;2.67;1.33;;;6.40;99.90;;;;;;5090230;28;20688;-73
2022/02/06 14:34:39;;;;;;;3.70;1.20;;;6.50;99.90;;;;;;5094968;28;20254;-74
2022/02/06 14:37:09;;;;;;;1.75;1.55;;;6.60;99.90;;;;;;5104978;28;20464;-74
2022/02/06 14:39:38;;;;;;;1.65;1.08;;;6.70;99.90;;;;;;5080701;28;20229;-73
2022/02/06 14:42:12;;;;;;;4.13;1.63;;;6.80;99.90;;;;;;5078955;28;20228;-71
2022/02/06 14:44:40;;;;;;;1.33;1.05;;;6.90;99.90;;;;;;5080477;28;20202;-73
2022/02/06 14:47:07;;;;;;;3.28;2.00;;;6.70;99.90;;;;;;5094692;28;20664;-72
2022/02/06 14:49:34;;;;;;;13.75;6.20;;;6.20;99.90;;;;;;5094969;28;20240;-73
2022/02/06 14:52:03;;;;;;;6.05;1.90;;;5.90;99.90;;;;;;5109007;28;20219;-72
2022/02/06 14:54:34;;;;;;;3.85;1.90;;;5.80;99.90;;;;;;5109467;27;20210;-73
2022/02/06 14:57:01;;;;;;;5.88;1.90;;;5.60;99.90;;;;;;5100572;28;20238;-75
2022/02/06 14:59:28;;;;;;;6.47;1.60;;;5.50;99.90;;;;;;5084318;28;20191;-73
2022/02/06 15:01:57;;;;;;;2.00;0.80;;;5.50;99.90;;;;;;5098072;28;20235;-73
2022/02/06 15:04:25;;;;;;;8.95;2.13;;;5.50;99.90;;;;;;5103801;28;21661;-75
2022/02/06 15:06:52;;;;;;;13.60;1.52;;;5.50;99.90;;;;;;5106440;28;20208;-74
2022/02/06 15:09:19;;;;;;;1.98;1.00;;;5.60;99.90;;;;;;5100285;28;20287;-75